Time;durP1;ratioP1;P1;durP2;ratioP2;P2;SDS_P1;SDS_P2;PMS_P1;PMS_P2;Temp;Humidity;BMP_temperature;BMP_pressure;BME280_temperature;BME280_humidity;BME280_pressure;Samples;Min_cycle;Max_cycle;Signal;HPM_P1;HPM_P2
2022/04/01 00:00:08;;;;;;;3.22;1.48;;;1.40;99.90;;;;;;5035046;28;20037;-63
2022/04/01 00:02:34;;;;;;;8.98;1.83;;;1.40;99.90;;;;;;5039813;28;20123;-63
2022/04/01 00:04:59;;;;;;;4.60;1.92;;;1.40;99.90;;;;;;5032988;28;20071;-63
2022/04/01 00:07:25;;;;;;;4.20;1.42;;;1.50;99.90;;;;;;5013574;28;20667;-61
2022/04/01 00:09:51;;;;;;;6.80;2.13;;;1.50;99.90;;;;;;5035676;28;20049;-62
2022/04/01 00:12:17;;;;;;;3.72;1.80;;;1.40;99.90;;;;;;5045070;28;20120;-61
2022/04/01 00:14:43;;;;;;;3.22;1.83;;;1.50;99.90;;;;;;5029795;28;20045;-61
2022/04/01 00:17:09;;;;;;;6.13;1.90;;;1.50;99.90;;;;;;5043104;28;20055;-62
2022/04/01 00:19:34;;;;;;;7.85;2.30;;;1.50;99.90;;;;;;5041849;28;20033;-61
2022/04/01 00:22:00;;;;;;;5.07;2.28;;;1.50;99.90;;;;;;5042347;28;20072;-62
2022/04/01 00:24:26;;;;;;;5.80;1.95;;;1.50;99.90;;;;;;5038817;28;20094;-62
2022/04/01 00:26:52;;;;;;;7.28;3.35;;;1.50;99.90;;;;;;5042423;28;20048;-61
2022/04/01 00:29:18;;;;;;;3.38;1.63;;;1.50;99.90;;;;;;5042320;28;20072;-62
2022/04/01 00:32:01;;;;;;;8.10;1.95;;;1.50;99.90;;;;;;5007204;28;20536;-62
2022/04/01 00:34:29;;;;;;;4.53;2.00;;;1.50;99.90;;;;;;5028532;28;20045;-62
2022/04/01 00:36:56;;;;;;;4.72;2.08;;;1.50;99.90;;;;;;5017607;28;20040;-63
2022/04/01 00:39:25;;;;;;;3.22;1.60;;;1.50;99.90;;;;;;5035177;28;20039;-60
2022/04/01 00:41:51;;;;;;;4.03;1.58;;;1.60;99.90;;;;;;5017726;28;20041;-62
2022/04/01 00:44:20;;;;;;;7.63;1.70;;;1.60;99.90;;;;;;5046856;28;20037;-63
2022/04/01 00:46:49;;;;;;;3.58;1.50;;;1.60;99.90;;;;;;5032167;28;20675;-63
2022/04/01 00:49:16;;;;;;;4.80;1.52;;;1.70;99.90;;;;;;5034971;28;20158;-61
2022/04/01 00:51:43;;;;;;;5.97;2.00;;;1.60;99.90;;;;;;5024796;28;20040;-63
2022/04/01 00:54:10;;;;;;;4.60;1.70;;;1.60;99.90;;;;;;5011616;28;20549;-62
2022/04/01 00:56:37;;;;;;;4.05;1.50;;;1.60;99.90;;;;;;5044101;28;20203;-62
2022/04/01 00:59:04;;;;;;;4.07;1.75;;;1.60;99.90;;;;;;5037353;28;20037;-62
2022/04/01 01:01:36;;;;;;;3.05;1.42;;;1.70;99.90;;;;;;5043413;28;20730;-62
2022/04/01 01:04:04;;;;;;;5.68;1.60;;;1.70;99.90;;;;;;5043410;28;20037;-62
2022/04/01 01:06:33;;;;;;;6.13;1.75;;;1.70;99.90;;;;;;5020848;28;20037;-61
2022/04/01 01:08:59;;;;;;;3.65;1.50;;;1.70;99.90;;;;;;5044047;28;20037;-64
2022/04/01 01:11:26;;;;;;;7.22;1.50;;;1.80;99.90;;;;;;5037571;28;20045;-62
2022/04/01 01:13:53;;;;;;;4.32;1.58;;;1.70;99.90;;;;;;5039523;28;20068;-63
2022/04/01 01:16:19;;;;;;;8.15;1.52;;;1.70;99.90;;;;;;5025996;28;20029;-62
2022/04/01 01:18:57;;;;;;;4.32;1.70;;;1.80;99.90;;;;;;5040360;28;20124;-62
2022/04/01 01:21:23;;;;;;;4.72;2.10;;;1.80;99.90;;;;;;5023673;28;20064;-63
2022/04/01 01:23:49;;;;;;;6.40;2.60;;;1.80;99.90;;;;;;5037597;28;20041;-63
2022/04/01 01:26:15;;;;;;;7.28;1.90;;;1.80;99.90;;;;;;5044441;28;20192;-62
2022/04/01 01:28:41;;;;;;;3.30;1.80;;;1.80;99.90;;;;;;5039306;28;20159;-63
2022/04/01 01:31:07;;;;;;;4.78;1.83;;;1.90;99.90;;;;;;5023943;28;20045;-64
2022/04/01 01:33:32;;;;;;;5.55;2.63;;;1.90;99.90;;;;;;5038736;28;20131;-62
2022/04/01 01:35:58;;;;;;;5.65;1.40;;;1.80;99.90;;;;;;5023402;28;20582;-62
2022/04/01 01:38:24;;;;;;;2.90;1.45;;;1.90;99.90;;;;;;5042648;28;20110;-62
2022/04/01 01:40:50;;;;;;;5.20;1.65;;;1.90;99.90;;;;;;5043399;28;20041;-63
2022/04/01 01:43:15;;;;;;;3.55;1.30;;;1.90;99.90;;;;;;5022938;28;20420;-63
2022/04/01 01:45:41;;;;;;;5.13;1.83;;;1.90;99.90;;;;;;5032238;28;20040;-63
2022/04/01 01:48:07;;;;;;;5.25;1.55;;;1.90;99.90;;;;;;5024503;28;20045;-63
2022/04/01 01:56:01;;;;;;;6.18;1.77;;;1.90;99.90;;;;;;5040151;28;20069;-63
2022/04/01 01:58:27;;;;;;;5.07;1.42;;;1.90;99.90;;;;;;5009051;28;20063;-62
2022/04/01 02:00:53;;;;;;;4.18;1.40;;;1.90;99.90;;;;;;5039894;28;20128;-62
2022/04/01 02:03:18;;;;;;;4.00;1.75;;;1.90;99.90;;;;;;5043617;28;20564;-62
2022/04/01 02:05:44;;;;;;;4.80;1.80;;;2.00;99.90;;;;;;5041294;28;20052;-63
2022/04/01 02:08:10;;;;;;;3.13;1.55;;;2.00;99.90;;;;;;5023400;28;20557;-63
2022/04/01 02:10:36;;;;;;;6.75;1.65;;;2.00;99.90;;;;;;5037228;28;20120;-62
2022/04/01 02:13:02;;;;;;;6.30;1.60;;;2.00;99.90;;;;;;5040818;28;20047;-62
2022/04/01 02:15:27;;;;;;;5.22;2.35;;;2.00;99.90;;;;;;5028916;28;20045;-62
2022/04/01 02:17:53;;;;;;;4.25;1.75;;;2.00;99.90;;;;;;5043353;28;20037;-63
2022/04/01 02:20:19;;;;;;;4.70;1.70;;;2.00;99.90;;;;;;5036299;28;20728;-61
2022/04/01 02:22:45;;;;;;;6.22;1.77;;;2.10;99.90;;;;;;5039172;28;20034;-62
2022/04/01 02:25:13;;;;;;;10.02;1.73;;;2.10;99.90;;;;;;5021659;28;20041;-62
2022/04/01 02:27:39;;;;;;;8.38;1.73;;;2.20;99.90;;;;;;5026821;28;20120;-62
2022/04/01 02:30:10;;;;;;;7.18;1.88;;;2.10;99.90;;;;;;5026340;28;20123;-63
2022/04/01 02:32:42;;;;;;;4.80;1.55;;;2.10;99.90;;;;;;5038118;28;20121;-63
2022/04/01 02:35:09;;;;;;;3.45;1.73;;;2.10;99.90;;;;;;5049174;28;20033;-62
2022/04/01 02:37:36;;;;;;;6.55;2.30;;;2.10;99.90;;;;;;5040882;28;20082;-62
2022/04/01 02:40:03;;;;;;;3.97;1.85;;;2.10;99.90;;;;;;5042880;28;20061;-62
2022/04/01 02:42:29;;;;;;;5.78;1.65;;;2.10;99.90;;;;;;5021741;28;20134;-61
2022/04/01 02:44:56;;;;;;;5.53;1.52;;;2.10;99.90;;;;;;5043859;28;20058;-62
2022/04/01 02:47:24;;;;;;;5.28;1.70;;;2.20;99.90;;;;;;5036476;28;20092;-62
2022/04/01 02:49:50;;;;;;;6.72;2.35;;;2.20;99.90;;;;;;5042509;28;20037;-62
2022/04/01 02:52:16;;;;;;;3.97;1.45;;;2.20;99.90;;;;;;5042024;28;20036;-63
2022/04/01 02:54:42;;;;;;;5.32;1.30;;;2.10;99.90;;;;;;5023633;28;20398;-62
2022/04/01 02:57:09;;;;;;;5.70;1.95;;;2.20;99.90;;;;;;5039146;28;20079;-63
2022/04/01 02:59:35;;;;;;;9.07;2.20;;;2.20;99.90;;;;;;5018994;28;20041;-62
2022/04/01 03:02:02;;;;;;;4.28;1.40;;;2.20;99.90;;;;;;5020588;28;20055;-64
2022/04/01 03:04:28;;;;;;;5.70;2.58;;;2.20;99.90;;;;;;5031904;23;20529;-54
2022/04/01 03:06:54;;;;;;;5.93;1.80;;;2.20;99.90;;;;;;5033407;28;22013;-55
2022/04/01 03:09:20;;;;;;;3.67;1.42;;;2.20;99.90;;;;;;5034993;28;20041;-54
2022/04/01 03:11:45;;;;;;;5.15;1.55;;;2.20;99.90;;;;;;5032605;28;20413;-53
2022/04/01 03:14:12;;;;;;;6.43;1.30;;;2.20;99.90;;;;;;5039834;28;20041;-51
2022/04/01 03:16:41;;;;;;;3.95;1.70;;;2.20;99.90;;;;;;5041329;28;20041;-53
2022/04/01 03:19:10;;;;;;;7.13;1.88;;;2.20;99.90;;;;;;5033298;28;20291;-55
2022/04/01 03:21:40;;;;;;;3.33;1.30;;;2.20;99.90;;;;;;5032886;28;20045;-53
2022/04/01 03:24:09;;;;;;;5.38;2.53;;;2.20;99.90;;;;;;5041698;28;20148;-56
2022/04/01 03:26:35;;;;;;;7.70;2.47;;;2.30;99.90;;;;;;5037507;28;20556;-54
2022/04/01 03:29:01;;;;;;;9.85;1.95;;;2.30;99.90;;;;;;5037205;28;20128;-54
2022/04/01 03:31:28;;;;;;;4.70;1.85;;;2.20;99.90;;;;;;5039252;28;20115;-55
2022/04/01 03:33:54;;;;;;;3.75;1.33;;;2.20;99.90;;;;;;5036451;28;20104;-55
2022/04/01 03:36:20;;;;;;;4.78;1.70;;;2.20;99.90;;;;;;5030268;28;20044;-55
2022/04/01 03:38:46;;;;;;;5.35;1.35;;;2.20;99.90;;;;;;5036912;28;20033;-55
2022/04/01 03:41:12;;;;;;;3.75;1.48;;;2.20;99.90;;;;;;5025046;28;20045;-56
2022/04/01 03:43:40;;;;;;;3.95;1.33;;;2.20;99.90;;;;;;5031242;28;20278;-56
2022/04/01 03:46:15;;;;;;;3.20;1.27;;;2.20;99.90;;;;;;5029257;28;20041;-57
2022/04/01 03:49:16;;;;;;;5.45;1.65;;;2.20;99.90;;;;;;5031404;28;20037;-56
2022/04/01 03:51:43;;;;;;;3.47;1.08;;;2.30;99.90;;;;;;5013798;28;20055;-56
2022/04/01 03:54:10;;;;;;;3.22;1.23;;;2.30;99.90;;;;;;5046401;28;20045;-55
2022/04/01 03:56:37;;;;;;;5.00;1.45;;;2.30;99.90;;;;;;5035887;28;20084;-56
2022/04/01 03:59:09;;;;;;;4.40;1.45;;;2.20;99.90;;;;;;5032971;28;20067;-55
2022/04/01 04:01:36;;;;;;;5.35;1.63;;;2.30;99.90;;;;;;5052561;28;20110;-55
2022/04/01 04:04:03;;;;;;;5.90;1.90;;;2.30;99.90;;;;;;5045005;28;20524;-55
2022/04/01 04:06:29;;;;;;;4.95;1.35;;;2.30;99.90;;;;;;5039505;28;20044;-57
2022/04/01 04:08:57;;;;;;;6.05;2.03;;;2.30;99.90;;;;;;5015428;28;20045;-52
2022/04/01 04:11:31;;;;;;;6.40;1.52;;;2.40;99.90;;;;;;5039544;28;20274;-55
2022/04/01 04:13:57;;;;;;;;;;;2.30;99.90;;;;;;5031368;28;20401;-52
2022/04/01 04:16:44;;;;;;;6.18;1.65;;;2.30;99.90;;;;;;5030135;28;19943;-52
2022/04/01 04:19:25;;;;;;;8.95;2.92;;;2.30;99.90;;;;;;5040329;28;20033;-52
2022/04/01 04:22:13;;;;;;;8.52;1.88;;;2.40;99.90;;;;;;5035492;28;20041;-56
2022/04/01 04:24:47;;;;;;;7.07;1.60;;;2.40;99.90;;;;;;5034586;28;20130;-56
2022/04/01 04:27:17;;;;;;;10.15;2.60;;;2.30;99.90;;;;;;5018675;28;20196;-57
2022/04/01 04:29:51;;;;;;;3.72;1.60;;;2.40;99.90;;;;;;5033440;28;20049;-54
2022/04/01 04:32:23;;;;;;;;;;;2.40;99.90;;;;;;5042527;28;20116;-55
2022/04/01 04:34:50;;;;;;;4.30;1.30;;;2.40;99.90;;;;;;5040560;28;19962;-52
2022/04/01 04:37:22;;;;;;;2.50;1.30;;;2.40;99.90;;;;;;5044551;28;20064;-55
2022/04/01 04:39:50;;;;;;;5.78;1.58;;;2.40;99.90;;;;;;5042677;28;20055;-56
2022/04/01 04:42:16;;;;;;;5.53;1.48;;;2.40;99.90;;;;;;5048522;28;20385;-55
2022/04/01 04:44:44;;;;;;;4.38;1.75;;;2.40;99.90;;;;;;5020243;28;20041;-56
2022/04/01 04:47:12;;;;;;;5.32;1.45;;;2.50;99.90;;;;;;5037673;28;20041;-56
2022/04/01 04:49:41;;;;;;;8.77;3.63;;;2.50;99.90;;;;;;5017478;28;20064;-54
2022/04/01 04:52:08;;;;;;;5.00;1.48;;;2.40;99.90;;;;;;5032492;28;20136;-52
2022/04/01 04:54:39;;;;;;;4.07;1.33;;;2.50;99.90;;;;;;5035550;28;20040;-55
2022/04/01 04:57:06;;;;;;;8.57;3.45;;;2.50;99.90;;;;;;5024535;28;20053;-54
2022/04/01 04:59:34;;;;;;;8.25;1.85;;;2.50;99.90;;;;;;5021724;28;20037;-55
2022/04/01 05:02:14;;;;;;;6.03;1.63;;;2.50;99.90;;;;;;5041054;28;20037;-51
2022/04/01 05:05:03;;;;;;;8.00;1.88;;;2.50;99.90;;;;;;5035358;28;20095;-55
2022/04/01 05:08:01;;;;;;;5.65;1.98;;;2.50;99.90;;;;;;5033074;28;20432;-55
2022/04/01 05:10:36;;;;;;;5.55;1.63;;;2.50;99.90;;;;;;5018359;28;20050;-55
2022/04/01 05:13:10;;;;;;;11.88;2.55;;;2.50;99.90;;;;;;5029463;28;20037;-56
2022/04/01 05:15:39;;;;;;;7.03;2.25;;;2.50;99.90;;;;;;5032452;28;20559;-51
2022/04/01 05:18:43;;;;;;;6.15;1.50;;;2.50;99.90;;;;;;5037947;28;20029;-55
2022/04/01 05:21:20;;;;;;;4.63;1.53;;;2.40;99.90;;;;;;5036643;28;20049;-53
2022/04/01 05:24:06;;;;;;;3.53;1.70;;;2.50;99.90;;;;;;5035902;28;20124;-56
2022/04/01 05:26:41;;;;;;;3.33;1.67;;;2.50;99.90;;;;;;5036810;28;20067;-52
2022/04/01 05:29:17;;;;;;;10.48;2.40;;;2.50;99.90;;;;;;5033830;28;20053;-53
2022/04/01 05:31:48;;;;;;;4.57;1.73;;;2.50;99.90;;;;;;5012638;28;20045;-56
2022/04/01 05:34:40;;;;;;;8.85;1.70;;;2.50;99.90;;;;;;5039350;28;20078;-53
2022/04/01 05:37:07;;;;;;;5.60;1.83;;;2.50;99.90;;;;;;5038463;28;20068;-53
2022/04/01 05:39:35;;;;;;;6.90;1.55;;;2.50;99.90;;;;;;5031910;28;20033;-52
2022/04/01 05:42:01;;;;;;;3.42;1.30;;;2.60;99.90;;;;;;5043721;28;20506;-55
2022/04/01 05:44:27;;;;;;;3.67;1.70;;;2.50;99.90;;;;;;5033342;28;20067;-57
2022/04/01 05:46:57;;;;;;;5.03;2.05;;;2.50;99.90;;;;;;5020583;28;20044;-57
2022/04/01 05:49:24;;;;;;;5.93;2.15;;;2.50;99.90;;;;;;5023816;28;20531;-52
2022/04/01 05:51:50;;;;;;;11.27;2.10;;;2.60;99.90;;;;;;5017406;28;20042;-56
2022/04/01 05:54:19;;;;;;;3.22;1.48;;;2.60;99.90;;;;;;5037297;28;20037;-52
2022/04/01 05:56:49;;;;;;;8.00;1.85;;;2.60;99.90;;;;;;5035429;28;20087;-51
2022/04/01 05:59:22;;;;;;;6.43;1.95;;;2.60;99.90;;;;;;5034776;28;20047;-56
2022/04/01 06:02:06;;;;;;;5.35;1.75;;;2.60;99.90;;;;;;5031504;28;20401;-57
2022/04/01 06:04:56;;;;;;;10.85;2.30;;;2.60;99.90;;;;;;5034695;28;20087;-54
2022/04/01 06:07:53;;;;;;;7.18;2.28;;;2.60;99.90;;;;;;5042626;28;20142;-53
2022/04/01 06:10:46;;;;;;;8.13;2.35;;;2.60;99.90;;;;;;5034491;28;20128;-55
2022/04/01 06:13:34;;;;;;;5.90;2.15;;;2.70;99.90;;;;;;5037665;28;20041;-54
2022/04/01 06:16:10;;;;;;;9.13;2.90;;;2.60;99.90;;;;;;5055317;28;20041;-55
2022/04/01 06:18:44;;;;;;;9.18;2.47;;;2.70;99.90;;;;;;5030934;28;20622;-53
2022/04/01 06:21:17;;;;;;;4.60;1.92;;;2.80;99.90;;;;;;5035515;28;20141;-51
2022/04/01 06:24:10;;;;;;;7.18;2.50;;;2.70;99.90;;;;;;5034308;28;20082;-52
2022/04/01 06:27:02;;;;;;;6.25;1.92;;;2.80;99.90;;;;;;5034229;28;20048;-54
2022/04/01 06:29:39;;;;;;;4.93;2.03;;;2.80;99.90;;;;;;5035429;28;20063;-52
2022/04/01 06:32:12;;;;;;;5.50;1.58;;;2.80;99.90;;;;;;5030707;28;20103;-56
2022/04/01 06:34:47;;;;;;;8.90;1.93;;;2.80;99.90;;;;;;5026748;28;20108;-52
2022/04/01 06:37:27;;;;;;;6.82;1.73;;;2.80;99.90;;;;;;5027252;28;20041;-54
2022/04/01 06:40:02;;;;;;;3.58;1.42;;;2.90;99.90;;;;;;5035373;28;20314;-55
2022/04/01 06:42:31;;;;;;;6.28;1.42;;;2.90;99.90;;;;;;5022099;28;20179;-56
2022/04/01 06:44:58;;;;;;;5.65;1.45;;;2.90;99.90;;;;;;5036077;28;20048;-57
2022/04/01 06:47:24;;;;;;;6.00;1.63;;;2.80;99.90;;;;;;5043883;28;20039;-56
2022/04/01 06:49:50;;;;;;;8.15;2.00;;;2.90;99.90;;;;;;5034089;28;20054;-57
2022/04/01 06:52:16;;;;;;;5.72;1.50;;;2.90;99.90;;;;;;5031688;28;20524;-56
2022/04/01 06:54:43;;;;;;;6.70;1.48;;;3.00;99.90;;;;;;5031838;28;20049;-52
2022/04/01 06:57:08;;;;;;;5.45;1.45;;;3.00;99.90;;;;;;5016194;28;20073;-53
2022/04/01 06:59:34;;;;;;;2.72;1.45;;;3.00;99.90;;;;;;5016246;28;20279;-56
2022/04/01 07:02:01;;;;;;;4.57;1.30;;;3.10;99.90;;;;;;5021679;28;20045;-54
2022/04/01 07:04:26;;;;;;;5.38;1.30;;;3.00;99.90;;;;;;5042203;28;20037;-55
2022/04/01 07:06:55;;;;;;;5.65;1.40;;;3.10;99.90;;;;;;5020436;28;20221;-55
2022/04/01 07:09:22;;;;;;;5.32;1.63;;;3.00;99.90;;;;;;5044545;28;20033;-55
2022/04/01 07:11:48;;;;;;;5.20;2.22;;;3.20;99.90;;;;;;5039300;28;20072;-57
2022/04/01 07:14:14;;;;;;;6.22;1.95;;;3.20;99.90;;;;;;5037601;28;21173;-55
2022/04/01 07:16:40;;;;;;;5.63;1.27;;;3.20;99.90;;;;;;5040035;28;20487;-58
2022/04/01 07:19:06;;;;;;;4.35;1.80;;;3.20;99.90;;;;;;5034768;28;20041;-55
2022/04/01 07:21:33;;;;;;;6.97;1.60;;;3.30;99.90;;;;;;5025970;28;20157;-56
2022/04/01 07:24:00;;;;;;;3.70;1.30;;;3.30;99.90;;;;;;5020395;28;20048;-56
2022/04/01 07:26:26;;;;;;;3.30;1.15;;;3.30;99.90;;;;;;5038078;28;20032;-55
2022/04/01 07:28:54;;;;;;;3.67;1.20;;;3.40;99.90;;;;;;5030620;28;20072;-56
2022/04/01 07:34:04;;;;;;;3.67;1.65;;;3.50;99.90;;;;;;5033185;28;20045;-55
2022/04/01 07:36:30;;;;;;;3.15;1.58;;;3.50;99.90;;;;;;5038584;28;20037;-56
2022/04/01 07:38:56;;;;;;;5.82;1.50;;;3.60;99.90;;;;;;5037766;28;20508;-58
2022/04/01 07:41:21;;;;;;;5.38;1.40;;;3.60;99.90;;;;;;5034996;28;20047;-57
2022/04/01 07:43:47;;;;;;;6.90;2.65;;;3.60;99.90;;;;;;5040085;28;20041;-58
2022/04/01 07:46:14;;;;;;;4.70;1.48;;;3.60;99.90;;;;;;5033077;28;20492;-55
2022/04/01 07:48:39;;;;;;;3.50;1.75;;;3.60;99.90;;;;;;5047271;28;20132;-54
2022/04/01 07:51:06;;;;;;;3.25;1.13;;;3.60;99.90;;;;;;5030956;28;20109;-57
2022/04/01 07:53:32;;;;;;;7.45;1.58;;;3.70;99.90;;;;;;5041536;28;20041;-58
2022/04/01 07:55:57;;;;;;;6.00;1.63;;;3.80;99.90;;;;;;5031710;28;20056;-56
2022/04/01 07:58:23;;;;;;;3.38;1.58;;;3.80;99.90;;;;;;5037331;28;20124;-55
2022/04/01 08:00:49;;;;;;;3.20;1.25;;;3.80;99.90;;;;;;5033877;28;20041;-57
2022/04/01 08:03:15;;;;;;;6.80;1.80;;;3.90;99.90;;;;;;5036809;28;20037;-55
2022/04/01 08:05:40;;;;;;;4.85;1.60;;;3.80;99.90;;;;;;5033555;28;20072;-59
2022/04/01 08:08:06;;;;;;;4.78;1.60;;;3.90;99.90;;;;;;5009220;28;20064;-57
2022/04/01 08:10:32;;;;;;;11.38;2.30;;;3.90;99.90;;;;;;5033062;28;20095;-52
2022/04/01 08:12:58;;;;;;;3.13;1.70;;;3.90;99.90;;;;;;5032475;28;20060;-57
2022/04/01 08:15:23;;;;;;;8.32;1.50;;;4.00;99.90;;;;;;5034115;28;20078;-53
2022/04/01 08:17:49;;;;;;;6.05;1.90;;;4.00;99.90;;;;;;5034333;28;20303;-55
2022/04/01 08:20:15;;;;;;;6.93;1.38;;;4.00;99.90;;;;;;5032163;28;20033;-56
2022/04/01 08:22:41;;;;;;;7.22;1.73;;;4.00;99.90;;;;;;5026847;28;20413;-60
2022/04/01 08:25:08;;;;;;;5.32;1.35;;;4.10;99.90;;;;;;5020902;28;20049;-58
2022/04/01 08:27:33;;;;;;;9.13;1.85;;;4.20;99.90;;;;;;5027367;28;20206;-59
2022/04/01 08:30:00;;;;;;;6.20;1.85;;;4.20;99.90;;;;;;5017718;28;20180;-57
2022/04/01 08:32:28;;;;;;;5.45;1.80;;;4.20;99.80;;;;;;5031182;28;20132;-58
2022/04/01 08:34:54;;;;;;;2.78;1.60;;;4.20;99.80;;;;;;5026816;28;20052;-58
2022/04/01 08:37:19;;;;;;;6.95;2.28;;;4.20;99.40;;;;;;5045974;28;20048;-58
2022/04/01 08:39:47;;;;;;;6.28;2.08;;;4.20;99.30;;;;;;5020396;28;20045;-55
2022/04/01 08:42:13;;;;;;;7.57;2.20;;;4.20;99.80;;;;;;5038077;28;20047;-60
2022/04/01 08:44:41;;;;;;;4.22;1.63;;;4.20;99.70;;;;;;5044586;28;20059;-57
2022/04/01 08:47:10;;;;;;;7.25;2.53;;;4.10;98.00;;;;;;5042566;28;20441;-57
2022/04/01 08:49:36;;;;;;;6.43;2.38;;;4.00;98.60;;;;;;5040442;28;20039;-58
2022/04/01 08:52:04;;;;;;;10.13;2.30;;;4.10;98.90;;;;;;5043745;28;20040;-57
2022/04/01 08:54:34;;;;;;;6.28;1.90;;;4.00;98.40;;;;;;5037648;28;20299;-56
2022/04/01 08:57:01;;;;;;;4.60;1.48;;;4.00;98.50;;;;;;5025609;28;20095;-59
2022/04/01 08:59:30;;;;;;;11.65;4.63;;;4.00;98.20;;;;;;5053705;28;20037;-59
2022/04/01 09:02:08;;;;;;;8.45;3.70;;;3.80;98.50;;;;;;5040104;28;20127;-57
2022/04/01 09:04:34;;;;;;;6.15;2.40;;;3.80;98.70;;;;;;5044122;28;20635;-55
2022/04/01 09:07:11;;;;;;;4.90;1.73;;;3.80;99.10;;;;;;5041970;28;20033;-54
2022/04/01 09:09:37;;;;;;;4.15;2.00;;;3.90;99.30;;;;;;5040581;28;20153;-52
2022/04/01 09:12:07;;;;;;;5.90;2.00;;;3.80;99.30;;;;;;5049607;28;20052;-55
2022/04/01 09:14:34;;;;;;;5.43;1.75;;;3.80;99.30;;;;;;5040260;28;20080;-60
2022/04/01 09:17:00;;;;;;;6.18;1.77;;;3.90;99.70;;;;;;5043917;28;20440;-53
2022/04/01 09:19:35;;;;;;;3.05;1.50;;;3.90;99.50;;;;;;5037164;28;20037;-55
2022/04/01 09:22:20;;;;;;;4.38;1.90;;;4.00;99.70;;;;;;5009827;28;20108;-56
2022/04/01 09:25:16;;;;;;;2.40;1.55;;;4.10;99.90;;;;;;5034148;28;20095;-58
2022/04/01 09:27:46;;;;;;;3.75;1.92;;;4.10;99.40;;;;;;5018369;28;20047;-55
2022/04/01 09:30:26;;;;;;;3.60;1.92;;;4.10;99.50;;;;;;5032626;28;20655;-61
2022/04/01 09:32:55;;;;;;;2.33;1.40;;;4.20;99.40;;;;;;5049467;28;20037;-56
2022/04/01 09:35:31;;;;;;;3.42;1.38;;;4.30;98.90;;;;;;5016760;28;20068;-54
2022/04/01 09:38:01;;;;;;;4.90;1.77;;;4.40;98.80;;;;;;5037204;28;20512;-56
2022/04/01 09:40:27;;;;;;;4.43;1.48;;;4.40;98.60;;;;;;5034780;28;20037;-60
2022/04/01 09:43:02;;;;;;;4.90;1.70;;;4.50;98.50;;;;;;5035719;28;20079;-56
2022/04/01 09:45:35;;;;;;;5.20;1.60;;;4.60;98.70;;;;;;5031587;28;20044;-53
2022/04/01 09:48:07;;;;;;;3.08;1.50;;;4.80;99.20;;;;;;5050396;28;20083;-59
2022/04/01 09:50:38;;;;;;;5.53;1.60;;;4.90;98.50;;;;;;5017538;28;20098;-55
2022/04/01 09:53:12;;;;;;;1.63;1.00;;;5.10;98.00;;;;;;5033817;28;20044;-59
2022/04/01 09:55:38;;;;;;;;;;;5.10;97.20;;;;;;5041853;28;20036;-55
2022/04/01 09:58:06;;;;;;;4.28;1.30;;;5.00;95.40;;;;;;5044722;28;19935;-54
2022/04/01 10:00:33;;;;;;;3.05;1.15;;;4.80;95.30;;;;;;5037280;28;20145;-58
2022/04/01 10:03:01;;;;;;;4.05;1.77;;;4.80;95.50;;;;;;5035152;28;20493;-59
2022/04/01 10:05:27;;;;;;;5.07;1.45;;;4.70;95.40;;;;;;5035641;28;20069;-53
2022/04/01 10:07:55;;;;;;;3.85;1.63;;;4.70;95.50;;;;;;5039359;28;20133;-56
2022/04/01 10:10:21;;;;;;;3.42;1.80;;;4.60;95.60;;;;;;5039330;28;20421;-54
2022/04/01 10:12:47;;;;;;;3.67;1.40;;;4.60;94.90;;;;;;5040441;28;20041;-58
2022/04/01 10:15:14;;;;;;;4.30;1.60;;;4.50;94.70;;;;;;5034354;28;20049;-61
2022/04/01 10:17:41;;;;;;;3.85;1.17;;;4.70;96.20;;;;;;5034597;28;20040;-58
2022/04/01 10:20:12;;;;;;;3.67;1.30;;;4.90;95.20;;;;;;5036883;28;20056;-60
2022/04/01 10:22:40;;;;;;;3.72;1.10;;;5.00;93.70;;;;;;5028612;28;21152;-58
2022/04/01 10:25:33;;;;;;;2.25;0.88;;;5.00;92.40;;;;;;5036663;28;20040;-58
2022/04/01 10:28:02;;;;;;;4.15;1.40;;;5.10;92.60;;;;;;5031710;28;20071;-55
2022/04/01 10:30:31;;;;;;;3.63;1.25;;;5.30;92.70;;;;;;5017281;28;20085;-57
2022/04/01 10:32:58;;;;;;;3.40;1.25;;;5.40;92.40;;;;;;5034728;28;20045;-55
2022/04/01 10:35:34;;;;;;;4.60;1.52;;;5.40;91.30;;;;;;5020613;28;20076;-56
2022/04/01 10:38:06;;;;;;;4.30;1.40;;;5.40;91.70;;;;;;5040199;28;20040;-57
2022/04/01 10:40:34;;;;;;;5.10;1.95;;;5.40;91.90;;;;;;5032963;28;20076;-57
2022/04/01 10:43:11;;;;;;;10.85;3.35;;;5.40;91.70;;;;;;5038559;28;20029;-55
2022/04/01 10:45:39;;;;;;;10.90;4.20;;;5.50;92.40;;;;;;5034696;28;20040;-63
2022/04/01 10:51:37;;;;;;;3.50;1.63;;;5.40;93.30;;;;;;5033333;28;20048;-55
2022/04/01 10:54:29;;;;;;;5.13;1.60;;;5.50;93.50;;;;;;5035123;28;20036;-58
2022/04/01 10:57:00;;;;;;;4.28;1.42;;;5.50;92.60;;;;;;5035040;28;20412;-63
2022/04/01 10:59:28;;;;;;;3.15;1.58;;;5.60;93.10;;;;;;5022173;28;20033;-58
2022/04/01 11:01:54;;;;;;;5.43;1.33;;;5.70;93.40;;;;;;5029881;28;20540;-58
2022/04/01 11:04:19;;;;;;;5.18;1.17;;;5.80;92.40;;;;;;5017035;28;20103;-59
2022/04/01 11:06:52;;;;;;;4.95;1.13;;;5.90;92.20;;;;;;5040952;28;20053;-59
2022/04/01 11:09:37;;;;;;;2.83;1.20;;;5.80;90.50;;;;;;5038037;28;20540;-63
2022/04/01 11:12:15;;;;;;;4.35;1.40;;;5.90;90.40;;;;;;5035314;28;20051;-58
2022/04/01 11:15:12;;;;;;;3.15;1.25;;;5.90;90.20;;;;;;5038963;28;20084;-58
2022/04/01 11:17:37;;;;;;;3.60;1.10;;;6.00;86.00;;;;;;5014001;28;20080;-59
2022/04/01 11:20:09;;;;;;;3.65;1.25;;;6.00;90.20;;;;;;5032282;28;20135;-59
2022/04/01 11:22:42;;;;;;;6.25;1.00;;;5.90;86.90;;;;;;5035307;28;20076;-56
2022/04/01 11:25:31;;;;;;;2.10;0.88;;;5.90;87.80;;;;;;5037961;28;20033;-57
2022/04/01 11:27:57;;;;;;;3.83;2.10;;;5.80;87.70;;;;;;5032279;28;20063;-58
2022/04/01 11:30:50;;;;;;;4.43;1.50;;;5.90;87.80;;;;;;5031085;28;20040;-57
2022/04/01 11:33:18;;;;;;;4.53;1.20;;;6.00;88.40;;;;;;5022700;28;20052;-59
2022/04/01 11:35:49;;;;;;;3.38;1.40;;;6.00;87.00;;;;;;5015465;28;20528;-59
2022/04/01 11:38:18;;;;;;;3.58;1.27;;;6.10;88.50;;;;;;5015892;28;20099;-58
2022/04/01 11:40:46;;;;;;;4.88;1.75;;;6.10;86.90;;;;;;5018793;28;20041;-58
2022/04/01 11:43:15;;;;;;;4.07;1.60;;;6.20;88.90;;;;;;5044759;22;20409;-61
2022/04/01 11:45:51;;;;;;;3.95;1.25;;;6.20;86.00;;;;;;5012872;28;20676;-63
2022/04/01 11:48:26;;;;;;;4.47;1.35;;;6.10;88.00;;;;;;4994417;28;20557;-61
2022/04/01 11:51:04;;;;;;;4.38;1.42;;;6.10;89.20;;;;;;4989872;28;20406;-64
2022/04/01 11:53:35;;;;;;;3.40;1.20;;;6.10;88.10;;;;;;4978787;28;20541;-62
2022/04/01 11:56:02;;;;;;;5.13;1.65;;;6.10;89.20;;;;;;4998471;28;20042;-62
2022/04/01 11:58:35;;;;;;;6.20;1.65;;;6.00;89.00;;;;;;4996238;28;20132;-63
2022/04/01 12:01:01;;;;;;;5.55;1.20;;;6.10;88.40;;;;;;4998458;28;20048;-62
2022/04/01 12:03:27;;;;;;;3.40;1.10;;;6.00;87.60;;;;;;4992691;28;20038;-63
2022/04/01 12:08:41;;;;;;;3.05;1.20;;;6.10;88.60;;;;;;5003955;28;20037;-61
2022/04/01 12:08:43;;;;;;;2.42;1.15;;;6.10;87.40;;;;;;4993934;28;20149;-61
2022/04/01 12:11:09;;;;;;;3.47;1.42;;;6.10;86.10;;;;;;4984603;28;20042;-63
2022/04/01 12:13:42;;;;;;;3.78;1.45;;;6.10;84.50;;;;;;4993271;28;20042;-62
2022/04/01 12:16:08;;;;;;;3.10;1.50;;;5.90;85.70;;;;;;4984891;28;20052;-61
2022/04/01 12:18:36;;;;;;;3.60;1.45;;;5.90;86.30;;;;;;4996579;28;20045;-61
2022/04/01 12:21:02;;;;;;;3.63;1.20;;;5.80;87.10;;;;;;4977341;28;20042;-60
2022/04/01 12:23:32;;;;;;;5.40;1.80;;;5.60;88.70;;;;;;4982684;28;20049;-62
2022/04/01 12:26:00;;;;;;;4.85;1.52;;;5.30;90.50;;;;;;4998891;28;20504;-63
2022/04/01 12:28:37;;;;;;;4.60;1.50;;;5.20;91.00;;;;;;4997100;28;21093;-62
2022/04/01 12:31:03;;;;;;;5.25;1.50;;;5.20;90.60;;;;;;4996752;28;20034;-63
2022/04/01 12:33:33;;;;;;;5.25;1.45;;;5.20;91.00;;;;;;4999125;28;20083;-63
2022/04/01 12:36:09;;;;;;;5.28;1.65;;;5.30;91.20;;;;;;4996003;28;20041;-62
2022/04/01 12:38:40;;;;;;;4.45;1.75;;;5.40;91.20;;;;;;4986630;28;20048;-62
2022/04/01 12:41:17;;;;;;;5.97;1.92;;;5.60;91.40;;;;;;4989641;28;20038;-62
2022/04/01 12:43:48;;;;;;;4.88;1.88;;;6.00;91.70;;;;;;4994315;28;20526;-62
2022/04/01 12:46:38;;;;;;;5.68;1.52;;;6.10;91.80;;;;;;4998409;28;20042;-63
2022/04/01 12:49:13;;;;;;;6.07;2.10;;;6.00;89.60;;;;;;4992531;28;20046;-60
2022/04/01 12:51:47;;;;;;;7.85;2.30;;;6.00;88.10;;;;;;4999473;28;20058;-62
2022/04/01 12:54:27;;;;;;;5.72;2.17;;;5.90;89.20;;;;;;4999033;28;20052;-62
2022/04/01 12:56:54;;;;;;;5.75;1.80;;;5.90;89.00;;;;;;4997225;28;20379;-61
2022/04/01 12:59:24;;;;;;;11.23;3.50;;;6.00;90.00;;;;;;4995942;28;20113;-61
2022/04/01 13:02:06;;;;;;;5.55;2.13;;;6.00;89.80;;;;;;4999009;28;20041;-62
2022/04/01 13:04:42;;;;;;;4.40;1.77;;;6.00;90.00;;;;;;5001980;28;20042;-62
2022/04/01 13:07:12;;;;;;;16.73;2.65;;;6.00;85.70;;;;;;5004176;28;20033;-61
2022/04/01 13:09:57;;;;;;;5.60;2.00;;;6.10;86.30;;;;;;4998134;28;20065;-60
2022/04/01 13:12:32;;;;;;;3.83;1.40;;;6.20;87.40;;;;;;5001442;28;20038;-61
2022/04/01 13:15:06;;;;;;;4.32;1.55;;;6.40;84.70;;;;;;5001932;28;20045;-64
2022/04/01 13:17:53;;;;;;;6.88;1.60;;;6.40;84.60;;;;;;4998828;28;20042;-62
2022/04/01 13:20:30;;;;;;;5.00;1.67;;;6.40;85.90;;;;;;4996207;28;20049;-63
2022/04/01 13:22:56;;;;;;;5.57;1.52;;;6.50;83.80;;;;;;4981988;28;20121;-62
2022/04/01 13:25:27;;;;;;;2.58;1.27;;;6.40;84.40;;;;;;4997001;28;20034;-62